SERO

Details ICAO SERO
Name CORONEL ARTILLERIA VICTOR LARREA
Region Equador
Timezone America/Guayaquil (UTC-5.0)
Plans Departing 6
Arriving 6
Stats Elevation 170 ft / 52 m (AMSL)
Location -3.435163° -79.977817°
Runways 1
Magnetic Variation 1.889° W
Sunrise 2018-05-25 11:20:00 UTC / 2018-05-25 06:20:00 Local
Sunset 2018-05-25 23:16:36 UTC / 2018-05-25 18:16:36 Local
Advertisement - Login to hide

Runways

ID Width Length Bearing (true) Bearing (mag) Surface Threshold Offset Overrun Length
09 59 ft / 18 m 3,246 ft / 990 m 91.02° 92.91° Asphalt 0 ft / 0 m 0 ft / 0 m
27 59 ft / 18 m 3,246 ft / 990 m 271.02° 272.91° Asphalt 0 ft / 0 m 0 ft / 0 m

Map

Weather


0- 5 10 15 20 25 30 35+ Temperature / ° C

Clouds and Precipitation
Forecast for 2018-05-25 18:00 UTC. Updated 2 hours ago

Ground ~20,000 ft ~40,000 ft Winds

METAR

SERO 251900Z 33004KT 9999 VCSH OVC026 27/22 Q1011

TAF

Not found
Warning: Do not use this data for real-world aviation or navigation. No guarantee of current accuracy is given.